Time;durP1;ratioP1;P1;durP2;ratioP2;P2;SDS_P1;SDS_P2;PMS_P1;PMS_P2;Temp;Humidity;BMP_temperature;BMP_pressure;BME280_temperature;BME280_humidity;BME280_pressure;Samples;Min_cycle;Max_cycle;Signal;HPM_P1;HPM_P2
2022/05/13 00:02:28;;;;;;;14.88;11.50;;;15.60;99.90;;;;;;6185084;23;20033;-84
2022/05/13 00:05:15;;;;;;;14.25;11.35;;;15.60;99.90;;;;;;6165019;23;20098;-83
2022/05/13 00:08:02;;;;;;;14.70;11.50;;;15.60;99.90;;;;;;6187032;23;20017;-86
2022/05/13 00:10:51;;;;;;;17.80;12.30;;;15.60;99.90;;;;;;6186083;23;20021;-84
2022/05/13 00:13:40;;;;;;;14.27;12.27;;;15.60;99.90;;;;;;6163223;23;20790;-84
2022/05/13 00:16:27;;;;;;;16.38;11.85;;;15.50;99.90;;;;;;6162910;23;20037;-83
2022/05/13 00:19:14;;;;;;;18.77;13.40;;;15.40;99.90;;;;;;6183798;23;20040;-83
2022/05/13 00:22:01;;;;;;;18.13;14.50;;;15.40;99.90;;;;;;6185247;23;20060;-85
2022/05/13 00:24:53;;;;;;;20.10;14.35;;;15.40;99.90;;;;;;6183825;23;20099;-85
2022/05/13 00:27:40;;;;;;;19.38;15.43;;;15.30;99.90;;;;;;6185053;23;20053;-84
2022/05/13 00:30:30;;;;;;;17.23;14.40;;;15.30;99.90;;;;;;6183796;23;20025;-85
2022/05/13 00:33:19;;;;;;;19.20;15.32;;;15.30;99.90;;;;;;6184276;23;20397;-84
2022/05/13 00:36:07;;;;;;;24.23;14.70;;;15.30;99.90;;;;;;6184984;23;20396;-84
2022/05/13 00:38:57;;;;;;;19.77;16.48;;;15.30;99.90;;;;;;6183696;23;20048;-84
2022/05/13 00:41:47;;;;;;;19.45;15.48;;;15.30;99.90;;;;;;6185052;23;20029;-84
2022/05/13 00:44:37;;;;;;;20.50;15.25;;;15.30;99.90;;;;;;6184810;23;20131;-84
2022/05/13 00:47:25;;;;;;;21.70;16.17;;;15.30;99.90;;;;;;6163297;23;20155;-85
2022/05/13 00:50:17;;;;;;;25.63;16.10;;;15.30;99.90;;;;;;6182014;23;20060;-83
2022/05/13 00:53:06;;;;;;;22.55;17.08;;;15.20;99.90;;;;;;6184512;23;20116;-84
2022/05/13 00:55:54;;;;;;;24.33;16.98;;;15.20;99.90;;;;;;6183926;23;20040;-84
2022/05/13 00:58:47;;;;;;;23.52;16.58;;;15.20;99.90;;;;;;6185451;23;20091;-85
2022/05/13 01:01:34;;;;;;;24.50;18.08;;;15.10;99.90;;;;;;6185010;23;20033;-84
2022/05/13 01:04:21;;;;;;;25.27;17.17;;;15.00;99.90;;;;;;6163041;23;20108;-85
2022/05/13 01:07:19;;;;;;;19.65;16.60;;;15.10;99.90;;;;;;6182310;23;20025;-84
2022/05/13 01:10:11;;;;;;;22.38;17.42;;;15.10;99.90;;;;;;6185294;23;20103;-84
2022/05/13 01:13:06;;;;;;;22.17;17.40;;;15.10;99.90;;;;;;6185008;23;20047;-84
2022/05/13 01:15:55;;;;;;;24.15;16.25;;;15.10;99.90;;;;;;6185093;23;20033;-85
2022/05/13 01:18:45;;;;;;;22.58;16.95;;;15.10;99.90;;;;;;6162507;23;20029;-83
2022/05/13 01:21:33;;;;;;;22.15;16.23;;;15.10;99.90;;;;;;6183678;23;20025;-84
2022/05/13 01:24:22;;;;;;;20.90;16.67;;;15.10;99.90;;;;;;6183545;23;20159;-84
2022/05/13 01:27:11;;;;;;;22.52;17.25;;;15.10;99.90;;;;;;6184319;23;20056;-84
2022/05/13 01:30:00;;;;;;;24.00;17.15;;;15.10;99.90;;;;;;6184533;23;20495;-84
2022/05/13 01:32:49;;;;;;;21.80;17.25;;;15.10;99.90;;;;;;6183473;23;20049;-84
2022/05/13 01:35:39;;;;;;;23.58;17.23;;;15.10;99.90;;;;;;6163000;23;20413;-84
2022/05/13 01:38:32;;;;;;;23.58;18.33;;;15.00;99.90;;;;;;6183313;23;20029;-85
2022/05/13 01:41:20;;;;;;;29.60;19.83;;;15.00;99.90;;;;;;6184010;23;20091;-83
2022/05/13 01:44:09;;;;;;;28.30;19.50;;;15.00;99.90;;;;;;6163430;23;20029;-85
2022/05/13 01:46:56;;;;;;;31.80;22.73;;;15.00;99.90;;;;;;6184155;23;20465;-83
2022/05/13 01:49:43;;;;;;;38.67;26.15;;;14.90;99.90;;;;;;6183203;23;20036;-84
2022/05/13 01:52:31;;;;;;;126.43;60.10;;;14.80;99.90;;;;;;6183011;23;20087;-87
2022/05/13 01:55:19;;;;;;;38.63;26.60;;;14.70;99.90;;;;;;6183498;23;20569;-85
2022/05/13 01:58:06;;;;;;;40.95;25.88;;;14.70;99.90;;;;;;6184792;23;20321;-88
2022/05/13 02:00:57;;;;;;;35.25;24.50;;;14.60;99.90;;;;;;6192975;23;20460;-87
2022/05/13 02:03:44;;;;;;;45.13;27.73;;;14.70;99.90;;;;;;6189037;23;20392;-87
2022/05/13 02:06:32;;;;;;;38.15;25.60;;;14.70;99.90;;;;;;6186576;23;20076;-86
2022/05/13 02:09:20;;;;;;;39.30;25.58;;;14.70;99.90;;;;;;6186019;23;20032;-88
2022/05/13 02:12:14;;;;;;;50.08;25.83;;;14.70;99.90;;;;;;6161931;23;20035;-87
2022/05/13 02:15:01;;;;;;;41.42;24.55;;;14.70;99.90;;;;;;6181330;23;20052;-87
2022/05/13 02:17:50;;;;;;;35.05;24.08;;;14.70;99.90;;;;;;6182671;23;20044;-87
2022/05/13 02:20:38;;;;;;;35.60;23.73;;;14.70;99.90;;;;;;6183381;23;20329;-87
2022/05/13 02:23:26;;;;;;;36.85;23.98;;;14.70;99.90;;;;;;6184438;23;20029;-87
2022/05/13 02:26:15;;;;;;;35.10;23.85;;;14.70;99.90;;;;;;6183469;23;20136;-88
2022/05/13 02:29:03;;;;;;;29.88;22.25;;;14.70;99.90;;;;;;6183544;23;20021;-86
2022/05/13 02:31:50;;;;;;;38.00;23.77;;;14.70;99.90;;;;;;6183880;23;20025;-87
2022/05/13 02:34:38;;;;;;;32.63;23.23;;;14.60;99.90;;;;;;6184199;23;20032;-86
2022/05/13 02:37:26;;;;;;;35.85;22.33;;;14.70;99.90;;;;;;6180779;23;20086;-87
2022/05/13 02:40:14;;;;;;;33.17;21.60;;;14.70;99.90;;;;;;6180507;23;20091;-86
2022/05/13 02:43:04;;;;;;;29.60;20.02;;;14.70;99.90;;;;;;6183096;23;20039;-86
2022/05/13 02:45:52;;;;;;;34.78;21.42;;;14.70;99.90;;;;;;6184228;23;20056;-87
2022/05/13 02:48:42;;;;;;;31.13;19.83;;;14.70;99.90;;;;;;6186783;23;20036;-87
2022/05/13 02:51:29;;;;;;;30.73;20.20;;;14.70;99.90;;;;;;6185493;23;20373;-86
2022/05/13 02:54:17;;;;;;;27.65;19.85;;;14.70;99.90;;;;;;6186095;23;20036;-86
2022/05/13 02:57:05;;;;;;;32.05;20.00;;;14.60;99.90;;;;;;6187301;23;20094;-85
2022/05/13 02:59:52;;;;;;;30.35;20.92;;;14.60;99.90;;;;;;6186212;23;20029;-86
2022/05/13 03:02:40;;;;;;;33.90;22.75;;;14.70;99.90;;;;;;6185804;23;20025;-85
2022/05/13 03:05:28;;;;;;;35.13;23.55;;;14.60;99.90;;;;;;6186350;23;20021;-86
2022/05/13 03:08:16;;;;;;;38.95;24.80;;;14.60;99.90;;;;;;6184772;23;20025;-87
2022/05/13 03:11:04;;;;;;;37.95;24.50;;;14.70;99.90;;;;;;6184775;23;20032;-86
2022/05/13 03:13:52;;;;;;;34.80;24.13;;;14.60;99.90;;;;;;6163158;23;20056;-86
2022/05/13 03:16:41;;;;;;;34.72;24.27;;;14.60;99.90;;;;;;6185367;23;20060;-88
2022/05/13 03:19:29;;;;;;;36.95;25.52;;;14.60;99.90;;;;;;6186072;23;20036;-86
2022/05/13 03:22:18;;;;;;;39.83;24.60;;;14.60;99.90;;;;;;6184512;23;20076;-86
2022/05/13 03:25:06;;;;;;;37.40;24.35;;;14.60;99.90;;;;;;6182823;23;20033;-86
2022/05/13 03:27:53;;;;;;;39.92;24.10;;;14.70;99.90;;;;;;6184649;23;20017;-86
2022/05/13 03:30:41;;;;;;;33.47;23.58;;;14.70;99.90;;;;;;6184918;23;20115;-87
2022/05/13 03:33:28;;;;;;;43.47;25.85;;;14.70;99.90;;;;;;6182822;23;20035;-86
2022/05/13 03:36:15;;;;;;;34.70;24.45;;;14.70;99.90;;;;;;6185866;23;20060;-86
2022/05/13 03:39:02;;;;;;;36.92;23.90;;;14.70;99.90;;;;;;6185830;23;20033;-87
2022/05/13 03:41:50;;;;;;;39.03;23.23;;;14.70;99.90;;;;;;6185993;23;20040;-86
2022/05/13 03:44:37;;;;;;;34.58;24.70;;;14.70;99.90;;;;;;6185566;23;20028;-85
2022/05/13 03:47:24;;;;;;;37.25;24.90;;;14.70;99.90;;;;;;6162799;23;20083;-86
2022/05/13 03:50:12;;;;;;;41.65;26.52;;;14.70;99.90;;;;;;6183455;23;20032;-86
2022/05/13 03:53:02;;;;;;;41.30;27.38;;;14.70;99.90;;;;;;6182906;23;20410;-87
2022/05/13 03:55:49;;;;;;;42.38;26.55;;;14.70;99.90;;;;;;6182985;23;20098;-86
2022/05/13 03:58:39;;;;;;;43.38;26.45;;;14.70;99.90;;;;;;6185304;23;20095;-85
2022/05/13 04:01:26;;;;;;;39.70;25.85;;;14.70;99.90;;;;;;6162506;23;20040;-86
2022/05/13 04:04:14;;;;;;;34.88;24.73;;;14.80;99.90;;;;;;6163373;23;20033;-85
2022/05/13 04:10:08;;;;;;;39.30;25.02;;;14.80;99.90;;;;;;6185088;23;20036;-85
2022/05/13 04:16:08;;;;;;;42.15;27.92;;;14.80;99.90;;;;;;6184984;23;20132;-84
2022/05/13 04:23:18;;;;;;;47.83;29.27;;;14.70;99.90;;;;;;6182347;23;20044;-85
2022/05/13 04:34:20;;;;;;;53.90;32.53;;;14.70;99.90;;;;;;6183018;23;20000;-85
2022/05/13 04:37:08;;;;;;;46.25;30.80;;;14.70;99.90;;;;;;6161965;23;20029;-84
2022/05/13 04:39:56;;;;;;;45.28;31.13;;;14.70;99.90;;;;;;6163262;23;20030;-85
2022/05/13 04:42:49;;;;;;;47.90;31.77;;;14.70;99.90;;;;;;6182971;23;20081;-85
2022/05/13 04:49:37;;;;;;;45.70;29.90;;;14.80;99.90;;;;;;6182851;23;20021;-85
2022/05/13 04:52:27;;;;;;;44.13;29.77;;;14.70;99.90;;;;;;6162200;23;20025;-86
2022/05/13 04:55:40;;;;;;;37.55;26.60;;;14.70;99.90;;;;;;6184237;23;20056;-86
2022/05/13 04:58:27;;;;;;;42.95;25.80;;;14.70;99.90;;;;;;6186366;23;20025;-86
2022/05/13 05:01:24;;;;;;;38.67;25.20;;;14.70;99.90;;;;;;6171970;23;20029;-86
2022/05/13 05:04:13;;;;;;;36.58;24.45;;;14.70;99.90;;;;;;6172257;23;20052;-87
2022/05/13 05:07:01;;;;;;;36.88;24.23;;;14.70;99.90;;;;;;6191272;23;20114;-86
2022/05/13 05:09:48;;;;;;;37.55;25.25;;;14.70;99.90;;;;;;6168789;23;20017;-87
2022/05/13 05:12:35;;;;;;;34.15;24.23;;;14.70;99.90;;;;;;6183062;23;20032;-86
2022/05/13 05:15:24;;;;;;;30.15;22.65;;;14.80;99.90;;;;;;6166132;23;20025;-88
2022/05/13 05:18:13;;;;;;;30.73;22.23;;;14.70;99.90;;;;;;6183080;23;20056;-88
2022/05/13 05:21:00;;;;;;;27.00;20.05;;;14.70;99.90;;;;;;6184155;23;20024;-87
2022/05/13 05:23:49;;;;;;;26.55;19.73;;;14.70;99.90;;;;;;6185239;23;20353;-87
2022/05/13 05:26:40;;;;;;;30.23;20.75;;;14.70;99.90;;;;;;6168772;23;20040;-85
2022/05/13 05:35:22;;;;;;;28.38;20.73;;;14.90;99.90;;;;;;6263100;22;20055;-87
2022/05/13 05:38:13;;;;;;;33.45;23.38;;;15.00;99.90;;;;;;6189029;23;20020;-87
2022/05/13 05:41:03;;;;;;;34.22;23.13;;;15.10;99.90;;;;;;6135510;23;20321;-88
2022/05/13 05:43:51;;;;;;;25.00;18.42;;;15.00;99.90;;;;;;6128664;23;20026;-85
2022/05/13 05:46:42;;;;;;;22.50;17.90;;;15.00;99.90;;;;;;6132162;23;20036;-86
2022/05/13 05:49:29;;;;;;;27.88;18.48;;;15.00;99.90;;;;;;6134066;23;20029;-86
2022/05/13 05:52:19;;;;;;;21.35;16.52;;;15.00;99.90;;;;;;6128519;23;20057;-86
2022/05/13 05:58:17;;;;;;;22.58;17.25;;;15.00;99.90;;;;;;6153921;23;20033;-88
2022/05/13 06:01:05;;;;;;;24.70;17.02;;;15.00;99.90;;;;;;6133171;23;20029;-88
2022/05/13 06:03:55;;;;;;;22.55;16.70;;;15.10;99.90;;;;;;6134498;23;20030;-88
2022/05/13 06:06:43;;;;;;;18.55;15.15;;;15.20;99.90;;;;;;6151893;23;20036;-87
2022/05/13 06:09:31;;;;;;;20.55;14.75;;;15.20;99.90;;;;;;6153100;23;20157;-88
2022/05/13 06:12:21;;;;;;;27.85;14.98;;;15.10;99.90;;;;;;6137790;23;20040;-88
2022/05/13 06:15:12;;;;;;;21.52;15.38;;;15.10;99.90;;;;;;6131891;23;20275;-86
2022/05/13 06:17:59;;;;;;;25.73;16.30;;;15.00;99.90;;;;;;6129884;23;20034;-85
2022/05/13 06:20:46;;;;;;;27.58;16.15;;;15.10;99.90;;;;;;6155212;23;20394;-87
2022/05/13 06:23:35;;;;;;;22.63;16.17;;;15.30;99.90;;;;;;6134574;23;20025;-88
2022/05/13 06:26:26;;;;;;;17.58;14.75;;;15.50;99.90;;;;;;6134191;23;20096;-88
2022/05/13 06:29:16;;;;;;;14.55;12.05;;;15.60;99.90;;;;;;6153364;23;20037;-86
2022/05/13 06:32:04;;;;;;;20.30;13.45;;;15.60;99.90;;;;;;6155444;23;20045;-86
2022/05/13 06:34:51;;;;;;;16.70;13.10;;;15.60;99.90;;;;;;6133922;23;20148;-88
2022/05/13 06:37:39;;;;;;;16.15;11.88;;;15.60;99.90;;;;;;6138927;23;20282;-85
2022/05/13 06:40:26;;;;;;;18.27;10.43;;;15.50;99.90;;;;;;6191725;23;20039;-84
2022/05/13 06:43:14;;;;;;;16.02;10.18;;;15.20;99.90;;;;;;6189897;23;20087;-85
2022/05/13 06:46:01;;;;;;;14.73;10.52;;;15.10;99.90;;;;;;6193518;23;20043;-86
2022/05/13 06:48:50;;;;;;;14.95;9.65;;;15.10;99.90;;;;;;6214527;23;20079;-85
2022/05/13 06:51:40;;;;;;;19.52;10.60;;;15.00;99.90;;;;;;6209207;23;20021;-84
2022/05/13 06:54:30;;;;;;;21.45;11.95;;;15.00;99.90;;;;;;6192038;23;20048;-86
2022/05/13 06:57:17;;;;;;;14.95;9.40;;;15.20;99.90;;;;;;6213927;23;20021;-86
2022/05/13 07:00:06;;;;;;;11.23;8.77;;;15.20;99.90;;;;;;6192529;23;20024;-87
2022/05/13 07:02:56;;;;;;;15.15;7.55;;;15.40;99.90;;;;;;6214476;23;20032;-87
2022/05/13 07:05:46;;;;;;;10.75;6.80;;;15.30;99.90;;;;;;6191771;23;20032;-86
2022/05/13 07:08:33;;;;;;;14.65;7.20;;;15.40;99.90;;;;;;6213344;23;20024;-87
2022/05/13 07:11:23;;;;;;;10.25;6.97;;;15.40;99.90;;;;;;6192928;23;20020;-86
2022/05/13 07:14:12;;;;;;;11.02;6.82;;;15.40;99.90;;;;;;6212817;23;20035;-86
2022/05/13 07:17:02;;;;;;;14.48;7.07;;;15.30;99.90;;;;;;6212216;23;20469;-86
2022/05/13 07:19:50;;;;;;;15.80;6.97;;;15.30;99.90;;;;;;6213200;23;20309;-86
2022/05/13 07:22:39;;;;;;;20.42;7.93;;;15.30;99.90;;;;;;6214222;23;20041;-86
2022/05/13 07:25:27;;;;;;;13.27;6.20;;;15.40;99.90;;;;;;6192056;23;20051;-87
2022/05/13 07:28:14;;;;;;;6.90;5.60;;;15.40;99.90;;;;;;6190627;23;20028;-86
2022/05/13 07:31:01;;;;;;;12.13;6.10;;;15.40;99.90;;;;;;6192069;23;20035;-87
2022/05/13 07:33:51;;;;;;;10.73;5.80;;;15.40;99.90;;;;;;6212385;23;20090;-86
2022/05/13 07:36:40;;;;;;;12.80;6.10;;;15.40;99.90;;;;;;6192481;23;20024;-86
2022/05/13 07:42:34;;;;;;;17.13;6.18;;;15.30;99.90;;;;;;6246091;23;20055;-86
2022/05/13 07:45:24;;;;;;;11.68;6.28;;;15.30;99.90;;;;;;6248125;22;20035;-86
2022/05/13 07:48:11;;;;;;;9.38;6.03;;;15.30;99.90;;;;;;6248395;23;20306;-86
2022/05/13 07:50:59;;;;;;;13.50;7.13;;;15.30;99.90;;;;;;6244368;23;20035;-87
2022/05/13 07:53:46;;;;;;;13.20;6.22;;;15.40;99.90;;;;;;6246906;23;20016;-87
2022/05/13 07:56:34;;;;;;;15.60;7.10;;;15.50;99.90;;;;;;6245478;23;20024;-86
2022/05/13 07:59:26;;;;;;;10.35;6.10;;;15.60;99.90;;;;;;6224132;23;20059;-87
2022/05/13 08:02:15;;;;;;;17.30;6.47;;;15.60;99.90;;;;;;6222828;23;20028;-85
2022/05/13 08:05:06;;;;;;;15.40;6.10;;;15.70;99.90;;;;;;6242430;23;20024;-87
2022/05/13 08:08:07;;;;;;;11.32;5.15;;;15.70;99.90;;;;;;6223840;23;20039;-85
2022/05/13 08:10:57;;;;;;;13.25;6.00;;;15.80;99.90;;;;;;6245762;23;20019;-85
2022/05/13 08:13:47;;;;;;;12.80;5.55;;;16.10;99.90;;;;;;6243897;23;20037;-86
2022/05/13 08:16:36;;;;;;;9.85;4.32;;;16.30;99.90;;;;;;6223772;23;20024;-86
2022/05/13 08:19:24;;;;;;;13.02;4.75;;;16.40;99.90;;;;;;6246194;23;20031;-85
2022/05/13 08:22:11;;;;;;;12.45;4.45;;;16.60;99.90;;;;;;6245061;23;20323;-85
2022/05/13 08:24:59;;;;;;;9.77;4.22;;;16.60;99.90;;;;;;6247823;22;20028;-85
2022/05/13 08:27:47;;;;;;;8.30;3.78;;;16.50;99.90;;;;;;6224957;23;20040;-85
2022/05/13 08:30:37;;;;;;;6.72;3.50;;;16.50;99.90;;;;;;6222626;23;20103;-87
2022/05/13 08:33:25;;;;;;;10.65;3.78;;;16.70;99.90;;;;;;6245455;23;20020;-88
2022/05/13 08:36:15;;;;;;;15.57;4.10;;;17.00;99.90;;;;;;6245147;23;20035;-88
2022/05/13 08:39:03;;;;;;;8.40;3.00;;;17.10;99.90;;;;;;6222313;23;20032;-87
2022/05/13 08:42:20;;;;;;;11.00;3.13;;;17.30;99.90;;;;;;6245363;23;20034;-87
2022/05/13 08:45:11;;;;;;;14.57;3.45;;;17.50;99.90;;;;;;6224638;23;20415;-86
2022/05/13 08:48:01;;;;;;;16.95;3.28;;;17.50;99.90;;;;;;6246754;22;20154;-86
2022/05/13 08:51:00;;;;;;;10.18;3.45;;;17.40;99.90;;;;;;6244546;23;20106;-88
2022/05/13 08:53:55;;;;;;;12.00;3.72;;;17.40;99.90;;;;;;6222219;23;20035;-87
2022/05/13 08:56:56;;;;;;;8.35;3.30;;;17.60;99.90;;;;;;6244135;23;20035;-86
2022/05/13 08:59:49;;;;;;;7.88;3.05;;;17.80;99.90;;;;;;6244159;23;20273;-87
2022/05/13 09:02:40;;;;;;;11.55;4.45;;;17.90;99.90;;;;;;6243663;23;20028;-86
2022/05/13 09:05:45;;;;;;;13.57;3.45;;;17.90;99.90;;;;;;6244694;23;20024;-87
2022/05/13 09:08:36;;;;;;;9.15;3.13;;;17.80;99.90;;;;;;6243158;23;20020;-88
2022/05/13 09:11:31;;;;;;;13.30;2.80;;;18.10;99.90;;;;;;6222046;23;20024;-88
2022/05/13 09:14:37;;;;;;;9.60;2.72;;;18.20;99.90;;;;;;6243602;23;20435;-89
2022/05/13 09:17:42;;;;;;;9.30;2.85;;;18.10;99.90;;;;;;6244442;23;20020;-88
2022/05/13 09:20:37;;;;;;;11.50;3.13;;;17.80;99.90;;;;;;6244994;23;20032;-88
2022/05/13 09:23:26;;;;;;;10.95;3.33;;;17.80;99.90;;;;;;6222534;23;20035;-87
2022/05/13 09:26:26;;;;;;;8.48;2.50;;;18.50;99.90;;;;;;6223371;23;20407;-87
2022/05/13 09:29:17;;;;;;;8.48;2.25;;;19.30;99.90;;;;;;6223441;23;20020;-84
2022/05/13 09:32:10;;;;;;;7.07;2.00;;;19.70;99.90;;;;;;6221537;23;20024;-86
2022/05/13 09:35:15;;;;;;;7.32;2.20;;;19.70;99.90;;;;;;6223283;23;20434;-88
2022/05/13 09:38:16;;;;;;;10.63;2.58;;;19.80;99.90;;;;;;6239173;23;20110;-86
2022/05/13 09:41:07;;;;;;;8.95;2.42;;;20.80;99.90;;;;;;6222878;23;20129;-85
2022/05/13 09:44:02;;;;;;;8.45;2.60;;;22.00;99.90;;;;;;6222208;23;20027;-87
2022/05/13 09:47:11;;;;;;;17.55;2.50;;;21.50;99.90;;;;;;6243352;23;20431;-87
2022/05/13 09:50:29;;;;;;;6.63;2.20;;;20.40;99.90;;;;;;6228041;23;20020;-86
2022/05/13 09:53:23;;;;;;;9.40;2.53;;;20.00;99.90;;;;;;6245165;23;20469;-86
2022/05/13 09:56:49;;;;;;;9.98;2.20;;;19.50;99.90;;;;;;6243141;23;20035;-88
2022/05/13 10:00:21;;;;;;;10.07;2.60;;;19.20;99.90;;;;;;6242087;23;20595;-84
2022/05/13 10:04:23;;;;;;;11.52;2.25;;;19.20;99.90;;;;;;6151242;23;20040;-86
2022/05/13 10:08:10;;;;;;;11.32;2.42;;;19.70;99.90;;;;;;6150681;23;20045;-86
2022/05/13 10:14:32;;;;;;;5.95;2.30;;;19.70;99.90;;;;;;6153028;23;20083;-87
2022/05/13 10:17:27;;;;;;;7.60;2.30;;;19.70;99.90;;;;;;6157939;23;20036;-86
2022/05/13 10:20:27;;;;;;;8.40;1.80;;;20.10;99.90;;;;;;6167823;23;20026;-84
2022/05/13 10:23:39;;;;;;;7.07;2.40;;;20.30;99.90;;;;;;6169427;23;20036;-85
2022/05/13 10:26:32;;;;;;;6.88;2.42;;;20.30;98.50;;;;;;6166540;23;20028;-81
2022/05/13 10:29:34;;;;;;;8.13;2.38;;;20.40;99.90;;;;;;6177348;23;20029;-80
2022/05/13 10:32:44;;;;;;;5.53;2.03;;;20.30;98.30;;;;;;6179533;23;20023;-82
2022/05/13 10:36:02;;;;;;;9.15;2.40;;;20.40;99.90;;;;;;6260223;23;20024;-84
2022/05/13 10:39:19;;;;;;;11.02;2.58;;;19.90;99.90;;;;;;6258025;23;20024;-84
2022/05/13 10:42:18;;;;;;;11.52;2.55;;;20.00;99.90;;;;;;6235760;23;20028;-82
2022/05/13 10:45:26;;;;;;;7.93;2.35;;;20.10;99.10;;;;;;6256608;23;20048;-83
2022/05/13 10:48:26;;;;;;;6.32;2.25;;;20.10;99.90;;;;;;6245337;23;20052;-85
2022/05/13 10:51:19;;;;;;;8.25;2.83;;;19.90;99.90;;;;;;6221541;23;20035;-85
2022/05/13 10:54:35;;;;;;;8.65;2.25;;;20.00;99.90;;;;;;6244343;23;20031;-85
2022/05/13 10:57:33;;;;;;;7.72;2.28;;;19.90;99.90;;;;;;6177837;23;20044;-86
2022/05/13 11:00:34;;;;;;;7.97;2.30;;;20.10;99.30;;;;;;6243728;23;20032;-84
2022/05/13 11:03:30;;;;;;;6.95;2.83;;;20.00;99.90;;;;;;6222491;23;20028;-87
2022/05/13 11:06:46;;;;;;;10.00;2.50;;;20.10;99.90;;;;;;6245908;23;20049;-86
2022/05/13 11:09:36;;;;;;;8.23;2.53;;;20.10;99.90;;;;;;6220783;23;20024;-85
2022/05/13 11:12:45;;;;;;;3.65;2.13;;;20.00;99.90;;;;;;6223549;23;20028;-85
2022/05/13 11:15:45;;;;;;;5.93;2.25;;;20.10;99.10;;;;;;6222784;23;20024;-86
2022/05/13 11:18:44;;;;;;;5.35;1.90;;;20.30;98.10;;;;;;6246029;23;20035;-84
2022/05/13 11:22:09;;;;;;;7.03;2.20;;;20.50;98.20;;;;;;6219010;23;20071;-84
2022/05/13 11:25:56;;;;;;;5.97;2.72;;;20.50;99.30;;;;;;6240913;23;20128;-85
2022/05/13 11:29:15;;;;;;;4.45;2.38;;;20.40;98.60;;;;;;6244819;23;20027;-87
2022/05/13 11:32:27;;;;;;;7.85;2.45;;;20.40;99.90;;;;;;6223570;23;20035;-87
2022/05/13 11:35:38;;;;;;;6.25;2.20;;;20.30;99.50;;;;;;6247737;23;20020;-88
2022/05/13 11:39:02;;;;;;;5.88;2.60;;;20.50;98.30;;;;;;6223574;23;20024;-88
2022/05/13 11:41:55;;;;;;;4.70;1.90;;;21.10;98.40;;;;;;6244084;23;20028;-88
2022/05/13 11:45:25;;;;;;;7.18;2.20;;;21.50;99.20;;;;;;6246274;23;20123;-88
2022/05/13 11:48:21;;;;;;;6.18;2.15;;;21.80;96.50;;;;;;6223762;23;20023;-89
2022/05/13 11:51:16;;;;;;;8.30;2.78;;;22.30;92.30;;;;;;6222267;23;20375;-87
2022/05/13 11:54:07;;;;;;;7.57;2.55;;;22.00;91.40;;;;;;6244363;23;20034;-88
2022/05/13 11:57:28;;;;;;;9.88;3.15;;;22.20;92.10;;;;;;6245767;23;20020;-88
2022/05/13 12:00:25;;;;;;;5.30;2.33;;;21.80;90.80;;;;;;6222587;23;20110;-87
2022/05/13 12:03:17;;;;;;;5.35;2.90;;;21.50;93.30;;;;;;6248645;23;20028;-86
2022/05/13 12:06:12;;;;;;;10.23;3.25;;;21.10;91.30;;;;;;6249005;23;20103;-88
2022/05/13 12:09:10;;;;;;;5.65;2.70;;;21.80;91.20;;;;;;6225046;23;20046;-88
2022/05/13 12:12:37;;;;;;;5.13;2.50;;;22.40;84.70;;;;;;6225736;23;20342;-87
2022/05/13 12:15:39;;;;;;;6.35;2.67;;;21.40;90.60;;;;;;6245811;23;20024;-87
2022/05/13 12:18:46;;;;;;;6.72;3.63;;;20.60;91.20;;;;;;6244137;23;20036;-89
2022/05/13 12:22:00;;;;;;;10.55;2.80;;;21.40;92.50;;;;;;6222189;23;20024;-86
2022/05/13 12:25:09;;;;;;;5.65;2.53;;;22.60;90.40;;;;;;6244102;23;20028;-87
2022/05/13 12:28:08;;;;;;;6.40;2.53;;;23.50;86.30;;;;;;6245617;23;20028;-88
2022/05/13 12:30:58;;;;;;;8.18;2.50;;;23.00;81.40;;;;;;6244377;23;20024;-85
2022/05/13 12:37:33;;;;;;;4.82;2.45;;;23.10;79.90;;;;;;6244201;23;20032;-87
2022/05/13 12:40:15;;;;;;;4.90;2.40;;;23.60;74.00;;;;;;6244969;23;20277;-89
2022/05/13 12:43:19;;;;;;;8.30;2.60;;;22.60;75.30;;;;;;6222696;23;20074;-86
2022/05/13 12:46:17;;;;;;;7.88;2.50;;;22.90;74.50;;;;;;6244124;23;20024;-89
2022/05/13 12:49:20;;;;;;;3.20;2.00;;;23.80;75.60;;;;;;6223400;23;20434;-86
2022/05/13 12:52:14;;;;;;;;;;;24.80;68.50;;;;;;6244312;23;20120;-87
2022/05/13 12:55:08;;;;;;;5.30;2.05;;;24.90;67.00;;;;;;6226061;23;19916;-85
2022/05/13 12:58:05;;;;;;;4.93;1.90;;;24.70;65.60;;;;;;6244534;23;20024;-87
2022/05/13 13:00:57;;;;;;;4.93;2.30;;;25.00;65.70;;;;;;6221757;23;20039;-88
2022/05/13 13:03:50;;;;;;;4.13;2.42;;;24.60;66.10;;;;;;6224084;23;20334;-87
2022/05/13 13:06:46;;;;;;;4.95;2.15;;;24.50;66.60;;;;;;6221970;23;20104;-83
2022/05/13 13:09:42;;;;;;;4.80;1.95;;;25.20;64.00;;;;;;6243531;23;20031;-86
2022/05/13 13:12:49;;;;;;;9.65;2.20;;;24.90;63.00;;;;;;6242077;23;20028;-87
2022/05/13 13:15:56;;;;;;;4.90;2.10;;;24.70;59.70;;;;;;6242357;23;20056;-83
2022/05/13 13:18:44;;;;;;;4.38;2.00;;;25.00;59.50;;;;;;6243848;23;20535;-86
2022/05/13 13:21:31;;;;;;;4.55;2.05;;;25.60;59.10;;;;;;6245028;23;20043;-87
2022/05/13 13:24:25;;;;;;;3.35;1.98;;;27.10;56.90;;;;;;6246075;23;20028;-85
2022/05/13 13:27:16;;;;;;;7.35;2.28;;;27.70;54.60;;;;;;6221144;23;20039;-86
2022/05/13 13:30:04;;;;;;;5.45;2.38;;;26.20;56.10;;;;;;6244075;23;20051;-88
2022/05/13 13:32:53;;;;;;;5.13;1.83;;;25.70;58.20;;;;;;6246654;23;20019;-86
2022/05/13 13:35:43;;;;;;;10.25;2.58;;;25.70;58.20;;;;;;6244331;23;20082;-88
2022/05/13 13:38:33;;;;;;;5.40;1.85;;;26.80;55.70;;;;;;6221378;23;20028;-88
2022/05/13 13:41:28;;;;;;;4.25;1.92;;;27.30;53.10;;;;;;6246178;23;20416;-87
2022/05/13 13:44:19;;;;;;;4.88;1.88;;;27.00;54.10;;;;;;6244179;23;20024;-86
2022/05/13 13:47:42;;;;;;;4.13;2.17;;;27.50;52.20;;;;;;6220414;23;20034;-86
2022/05/13 13:50:53;;;;;;;6.22;2.30;;;27.80;50.50;;;;;;6244678;23;20024;-85
2022/05/13 13:54:11;;;;;;;5.25;2.03;;;27.50;51.10;;;;;;6245496;23;20116;-86
2022/05/13 13:57:19;;;;;;;5.30;2.45;;;26.10;53.30;;;;;;6247779;23;20078;-83
2022/05/13 14:00:49;;;;;;;7.38;2.15;;;26.40;52.70;;;;;;6222201;23;20091;-85
2022/05/13 14:03:48;;;;;;;5.05;1.95;;;27.70;50.60;;;;;;6246755;23;20110;-86
2022/05/13 14:07:12;;;;;;;3.97;1.80;;;29.00;46.50;;;;;;6227120;23;20055;-85
2022/05/13 14:10:48;;;;;;;3.58;1.70;;;29.20;45.70;;;;;;6149629;23;20297;-84
2022/05/13 14:14:02;;;;;;;6.05;1.85;;;28.90;45.60;;;;;;6066964;23;20106;-85
2022/05/13 14:17:21;;;;;;;5.57;1.98;;;28.90;45.60;;;;;;6044915;23;20034;-84
2022/05/13 14:20:56;;;;;;;5.30;1.60;;;28.70;46.60;;;;;;6064077;23;20026;-87
2022/05/13 14:24:08;;;;;;;5.57;1.90;;;28.80;44.40;;;;;;5980980;23;20031;-86
2022/05/13 14:27:00;;;;;;;7.53;1.70;;;28.70;44.70;;;;;;5982268;23;20028;-85
2022/05/13 14:30:59;;;;;;;3.75;1.75;;;28.60;44.40;;;;;;6021463;23;20244;-87
2022/05/13 14:33:52;;;;;;;2.47;1.60;;;28.60;43.90;;;;;;6126552;23;20436;-86
2022/05/13 14:37:26;;;;;;;3.38;1.42;;;29.70;43.80;;;;;;6124984;23;20425;-89
2022/05/13 14:40:28;;;;;;;3.67;1.60;;;29.90;40.60;;;;;;6124602;23;20080;-87
2022/05/13 14:47:52;;;;;;;4.68;1.90;;;27.30;44.80;;;;;;6122967;23;20018;-84
2022/05/13 14:50:58;;;;;;;5.85;1.50;;;27.70;44.80;;;;;;6125505;23;20050;-89
2022/05/13 15:13:49;;;;;;;7.28;2.20;;;25.20;49.50;;;;;;6229915;23;20036;-84
2022/05/13 15:30:07;;;;;;;11.43;2.17;;;24.30;51.20;;;;;;6232537;23;20019;-80
2022/05/13 15:35:52;;;;;;;3.50;1.63;;;23.30;51.30;;;;;;6279931;22;20081;-84
2022/05/13 15:42:36;;;;;;;5.00;1.60;;;22.90;55.40;;;;;;6283850;22;20054;-86
2022/05/13 15:45:43;;;;;;;4.90;1.67;;;22.70;56.70;;;;;;6255931;22;20027;-85
2022/05/13 15:48:30;;;;;;;3.10;1.60;;;22.90;56.40;;;;;;6254885;22;20097;-86
2022/05/13 15:54:26;;;;;;;7.10;1.60;;;23.20;53.40;;;;;;6275660;22;20075;-84
2022/05/13 15:57:15;;;;;;;6.00;2.00;;;23.30;53.60;;;;;;6274936;22;20058;-84
2022/05/13 16:00:11;;;;;;;5.70;1.48;;;23.20;53.30;;;;;;6279883;22;20038;-86
2022/05/13 16:03:03;;;;;;;5.28;1.60;;;22.90;51.70;;;;;;6283970;22;20268;-84
2022/05/13 16:05:53;;;;;;;4.85;1.70;;;22.70;53.90;;;;;;6284172;22;20100;-83
2022/05/13 16:08:44;;;;;;;4.75;1.40;;;22.70;55.50;;;;;;6256293;22;20088;-84
2022/05/13 16:11:39;;;;;;;5.80;1.75;;;22.80;54.60;;;;;;6280156;22;20031;-85
2022/05/13 16:14:28;;;;;;;6.00;1.33;;;22.80;54.20;;;;;;6262490;22;20030;-88
2022/05/13 16:17:20;;;;;;;3.38;1.50;;;22.70;53.30;;;;;;6280161;22;20022;-87
2022/05/13 16:20:09;;;;;;;7.68;1.63;;;22.60;55.20;;;;;;6277229;22;20649;-85
2022/05/13 16:23:00;;;;;;;5.10;1.63;;;22.60;55.80;;;;;;6274568;22;20356;-86
2022/05/13 16:25:48;;;;;;;5.00;1.58;;;22.70;56.60;;;;;;6276743;22;20077;-84
2022/05/13 16:28:36;;;;;;;5.82;1.58;;;22.40;53.60;;;;;;6253664;22;20028;-87